Time;durP1;ratioP1;P1;durP2;ratioP2;P2;SDS_P1;SDS_P2;PMS_P1;PMS_P2;Temp;Humidity;BMP_temperature;BMP_pressure;BME280_temperature;BME280_humidity;BME280_pressure;Samples;Min_cycle;Max_cycle;Signal;HPM_P1;HPM_P2
2023/11/24 00:02:06;;;;;;;29.83;5.63;;;8.60;99.90;;;;;;5118539;28;20100;-57
2023/11/24 00:04:33;;;;;;;27.58;4.90;;;8.60;99.90;;;;;;5107766;28;20039;-58
2023/11/24 00:06:59;;;;;;;29.13;4.80;;;8.50;99.90;;;;;;5100629;28;20039;-58
2023/11/24 00:09:27;;;;;;;27.30;4.90;;;8.50;99.90;;;;;;5100099;28;20405;-59
2023/11/24 00:11:53;;;;;;;18.88;4.65;;;8.50;99.90;;;;;;5118846;28;20043;-57
2023/11/24 00:14:19;;;;;;;28.65;6.15;;;8.40;99.90;;;;;;5118711;28;20454;-59
2023/11/24 00:16:47;;;;;;;26.52;4.03;;;8.60;99.90;;;;;;5118340;28;20040;-59
2023/11/24 00:19:15;;;;;;;21.08;3.67;;;8.50;99.90;;;;;;5118562;28;20104;-57
2023/11/24 00:21:42;;;;;;;27.88;4.50;;;8.50;99.90;;;;;;5118646;28;20035;-57
2023/11/24 00:24:08;;;;;;;28.75;4.68;;;8.50;99.90;;;;;;5100415;28;20043;-57
2023/11/24 00:26:34;;;;;;;19.75;4.53;;;8.60;99.90;;;;;;5100010;28;20544;-58
2023/11/24 00:29:00;;;;;;;26.85;5.15;;;8.60;99.90;;;;;;5118530;28;20047;-57
2023/11/24 00:31:27;;;;;;;26.52;5.03;;;8.60;99.90;;;;;;5110474;28;20424;-58
2023/11/24 00:33:53;;;;;;;23.02;4.05;;;8.70;99.90;;;;;;5118104;28;20067;-58
2023/11/24 00:36:20;;;;;;;17.52;3.97;;;8.60;99.90;;;;;;5118414;28;20051;-56
2023/11/24 00:38:49;;;;;;;18.88;3.40;;;8.60;99.90;;;;;;5118205;28;20115;-58
2023/11/24 00:41:19;;;;;;;26.02;3.58;;;8.70;99.90;;;;;;5118286;28;20451;-58
2023/11/24 00:43:46;;;;;;;18.45;3.40;;;8.60;99.90;;;;;;5118113;28;20043;-57
2023/11/24 00:46:12;;;;;;;19.00;3.83;;;8.60;99.90;;;;;;5117924;28;20048;-58
2023/11/24 00:48:39;;;;;;;14.05;2.67;;;8.50;99.90;;;;;;5127241;27;20122;-59
2023/11/24 00:51:05;;;;;;;19.35;3.67;;;8.50;99.90;;;;;;5120190;27;20097;-56
2023/11/24 00:53:35;;;;;;;16.33;2.80;;;8.50;99.90;;;;;;5138804;27;20109;-57
2023/11/24 00:56:01;;;;;;;15.65;2.60;;;8.40;99.90;;;;;;5138489;27;20509;-56
2023/11/24 00:58:27;;;;;;;14.18;3.00;;;8.40;99.90;;;;;;5134461;27;20035;-57
2023/11/24 01:00:53;;;;;;;17.90;3.17;;;8.30;99.90;;;;;;5138589;27;20034;-56
2023/11/24 01:03:23;;;;;;;18.98;3.35;;;8.20;99.90;;;;;;5116283;27;20031;-57
2023/11/24 01:05:49;;;;;;;18.75;3.63;;;8.10;99.90;;;;;;5120069;27;20047;-57
2023/11/24 01:08:16;;;;;;;17.73;2.90;;;8.10;99.90;;;;;;5136906;27;20035;-56
2023/11/24 01:10:45;;;;;;;21.88;3.75;;;8.10;99.90;;;;;;5135468;27;20039;-57
2023/11/24 01:13:11;;;;;;;19.35;4.07;;;8.00;99.90;;;;;;5135176;27;20042;-57
2023/11/24 01:15:37;;;;;;;22.55;3.17;;;8.00;99.90;;;;;;5135198;27;20035;-57
2023/11/24 01:18:03;;;;;;;16.88;3.53;;;8.00;99.90;;;;;;5135101;27;20039;-57
2023/11/24 01:20:29;;;;;;;19.40;4.10;;;8.00;99.90;;;;;;5135129;27;20034;-57
2023/11/24 01:22:55;;;;;;;22.15;5.45;;;8.00;99.90;;;;;;5135278;27;20035;-56
2023/11/24 01:25:21;;;;;;;20.35;3.88;;;7.90;99.90;;;;;;5134804;27;20039;-58
2023/11/24 01:27:47;;;;;;;24.55;3.97;;;8.00;99.90;;;;;;5130862;27;20130;-57
2023/11/24 01:30:15;;;;;;;24.67;4.15;;;7.90;99.90;;;;;;5108363;27;20042;-59
2023/11/24 01:32:40;;;;;;;25.00;3.97;;;7.90;99.90;;;;;;5132553;27;20131;-55
2023/11/24 01:35:07;;;;;;;17.02;3.25;;;7.80;99.90;;;;;;5128918;27;20079;-57
2023/11/24 01:37:33;;;;;;;23.10;3.78;;;7.90;99.90;;;;;;5116691;27;20074;-56
2023/11/24 01:39:59;;;;;;;18.27;3.60;;;8.00;99.90;;;;;;5116638;27;20031;-55
2023/11/24 01:42:24;;;;;;;23.75;3.20;;;8.20;99.90;;;;;;5134608;27;20027;-56
2023/11/24 01:44:51;;;;;;;18.75;3.00;;;8.20;99.90;;;;;;5132031;27;20114;-55
2023/11/24 01:47:17;;;;;;;20.65;3.08;;;8.30;99.90;;;;;;5112794;27;20185;-57
2023/11/24 01:49:45;;;;;;;26.02;4.00;;;8.30;99.90;;;;;;5111975;28;20108;-59
2023/11/24 01:52:12;;;;;;;22.95;3.75;;;8.30;99.90;;;;;;5102265;28;20062;-58
2023/11/24 01:54:39;;;;;;;22.48;3.20;;;8.20;99.90;;;;;;5113923;28;20363;-57
2023/11/24 01:57:08;;;;;;;17.67;3.83;;;8.10;99.90;;;;;;5113993;28;20047;-57
2023/11/24 01:59:35;;;;;;;21.88;3.10;;;8.00;99.90;;;;;;5106914;28;20094;-57
2023/11/24 02:02:01;;;;;;;11.55;2.13;;;7.90;99.90;;;;;;5113980;28;20044;-58
2023/11/24 02:04:27;;;;;;;9.80;1.88;;;7.90;99.90;;;;;;5092960;28;20127;-56
2023/11/24 02:06:54;;;;;;;11.75;2.17;;;7.90;99.90;;;;;;5095432;28;20158;-57
2023/11/24 02:09:21;;;;;;;13.45;1.98;;;7.70;99.90;;;;;;5113578;28;20035;-56
2023/11/24 02:11:47;;;;;;;10.52;2.25;;;7.70;99.90;;;;;;5114113;28;20043;-57
2023/11/24 02:14:13;;;;;;;11.50;1.77;;;7.70;99.90;;;;;;5113385;28;20043;-57
2023/11/24 02:16:38;;;;;;;12.85;2.17;;;7.60;99.90;;;;;;5125376;27;20043;-58
2023/11/24 02:19:04;;;;;;;11.82;2.35;;;7.60;99.90;;;;;;5134338;27;20035;-56
2023/11/24 02:21:30;;;;;;;15.57;3.00;;;7.60;99.90;;;;;;5101255;27;20036;-55
2023/11/24 02:23:56;;;;;;;16.90;2.67;;;7.70;99.90;;;;;;5113601;28;20039;-59
2023/11/24 02:26:21;;;;;;;17.45;2.97;;;7.80;99.90;;;;;;5113227;28;20031;-58
2023/11/24 02:28:47;;;;;;;13.98;2.00;;;7.90;99.90;;;;;;5117189;27;20042;-57
2023/11/24 02:31:13;;;;;;;16.45;2.70;;;7.90;99.90;;;;;;5133857;27;20046;-54
2023/11/24 02:33:41;;;;;;;17.88;2.55;;;8.00;99.90;;;;;;5127531;27;20033;-56
2023/11/24 02:36:16;;;;;;;17.08;2.70;;;8.00;99.90;;;;;;5133776;27;20039;-56
2023/11/24 02:38:49;;;;;;;16.42;2.42;;;8.00;99.90;;;;;;5127530;27;20136;-57
2023/11/24 02:41:18;;;;;;;12.10;2.20;;;8.00;99.90;;;;;;5115496;27;20180;-58
2023/11/24 02:43:44;;;;;;;11.00;2.40;;;8.10;99.90;;;;;;5116044;27;20039;-55
2023/11/24 02:46:15;;;;;;;14.50;3.00;;;8.10;99.90;;;;;;5133652;27;20042;-57
2023/11/24 02:48:44;;;;;;;10.02;2.40;;;8.10;99.90;;;;;;5133424;27;20091;-56
2023/11/24 02:51:11;;;;;;;13.30;2.40;;;8.00;99.90;;;;;;5133677;27;20131;-60
2023/11/24 02:53:37;;;;;;;13.10;3.13;;;8.00;99.90;;;;;;5130863;27;20042;-57
2023/11/24 02:56:04;;;;;;;16.52;2.75;;;8.10;99.90;;;;;;5100207;28;20433;-57
2023/11/24 02:58:32;;;;;;;11.23;2.22;;;8.00;99.90;;;;;;5112669;28;20028;-58
2023/11/24 03:00:58;;;;;;;13.48;2.33;;;8.10;99.90;;;;;;5112602;28;20105;-56
2023/11/24 03:03:24;;;;;;;11.35;2.03;;;8.20;99.90;;;;;;5112505;28;20067;-55
2023/11/24 03:05:54;;;;;;;16.95;2.20;;;8.20;99.90;;;;;;5112567;28;20039;-58
2023/11/24 03:08:20;;;;;;;15.10;2.30;;;8.20;99.90;;;;;;5113106;28;20469;-56
2023/11/24 03:10:46;;;;;;;11.90;2.13;;;8.20;99.90;;;;;;5112710;28;20497;-58
2023/11/24 03:13:13;;;;;;;7.28;1.40;;;8.20;99.90;;;;;;5109919;27;20039;-56
2023/11/24 03:15:40;;;;;;;14.57;1.65;;;8.00;99.90;;;;;;5132890;27;20034;-55
2023/11/24 03:18:06;;;;;;;11.98;2.25;;;7.80;99.90;;;;;;5132891;27;20473;-56
2023/11/24 03:20:32;;;;;;;14.30;1.85;;;7.70;99.90;;;;;;5114337;27;20031;-57
2023/11/24 03:22:58;;;;;;;8.35;1.63;;;7.60;99.90;;;;;;5132969;27;20043;-58
2023/11/24 03:25:24;;;;;;;8.20;1.67;;;7.60;99.90;;;;;;5132742;27;20047;-55
2023/11/24 03:27:49;;;;;;;8.85;1.70;;;7.50;99.90;;;;;;5132672;27;20057;-58
2023/11/24 03:30:15;;;;;;;7.45;2.33;;;7.50;99.90;;;;;;5125867;27;20110;-57
2023/11/24 03:32:41;;;;;;;11.70;2.53;;;7.60;99.90;;;;;;5113693;27;20049;-56
2023/11/24 03:35:08;;;;;;;8.15;1.98;;;7.50;99.90;;;;;;5125716;27;20043;-57
2023/11/24 03:37:33;;;;;;;11.20;1.83;;;7.50;99.90;;;;;;5114449;27;20035;-56
2023/11/24 03:39:59;;;;;;;10.80;2.70;;;7.40;99.90;;;;;;5125836;27;20487;-57
2023/11/24 03:42:25;;;;;;;11.07;2.63;;;7.40;99.90;;;;;;5114401;27;20043;-54
2023/11/24 03:44:51;;;;;;;13.15;2.97;;;7.20;99.90;;;;;;5132496;27;20405;-58
2023/11/24 03:47:17;;;;;;;9.68;2.50;;;7.30;99.90;;;;;;5132841;27;20050;-56
2023/11/24 03:49:43;;;;;;;10.90;2.33;;;7.10;99.90;;;;;;5113939;27;20066;-55
2023/11/24 03:52:08;;;;;;;12.55;2.90;;;7.00;99.90;;;;;;5132816;27;20512;-55
2023/11/24 03:54:34;;;;;;;8.50;1.90;;;7.00;99.90;;;;;;5095676;28;20036;-55
2023/11/24 03:57:00;;;;;;;7.78;1.60;;;7.00;99.90;;;;;;5112439;28;20043;-56
2023/11/24 03:59:25;;;;;;;8.43;1.73;;;7.00;99.90;;;;;;5094414;28;20471;-58
2023/11/24 04:01:51;;;;;;;12.60;2.30;;;7.10;99.90;;;;;;5121210;28;20088;-56
2023/11/24 04:04:17;;;;;;;10.98;2.00;;;7.20;99.90;;;;;;5124300;28;20549;-57
2023/11/24 04:06:43;;;;;;;11.65;1.83;;;7.10;99.90;;;;;;5132392;28;20039;-57
2023/11/24 04:09:10;;;;;;;13.18;3.20;;;7.00;99.90;;;;;;5097354;28;20043;-57
2023/11/24 04:11:35;;;;;;;23.23;4.70;;;7.00;99.90;;;;;;5132118;28;20039;-57
2023/11/24 04:14:01;;;;;;;12.63;2.38;;;7.00;99.90;;;;;;5132162;28;20419;-57
2023/11/24 04:16:29;;;;;;;15.40;2.70;;;7.00;99.90;;;;;;5132177;28;20125;-57
2023/11/24 04:18:55;;;;;;;6.50;1.55;;;7.00;99.90;;;;;;5132178;28;20035;-56
2023/11/24 04:21:22;;;;;;;8.90;1.88;;;6.90;99.90;;;;;;5132057;28;20512;-56
2023/11/24 04:23:47;;;;;;;13.05;1.58;;;7.60;99.90;;;;;;5123571;28;20046;-52
2023/11/24 04:26:13;;;;;;;9.00;1.40;;;6.90;99.90;;;;;;5132287;28;20035;-56
2023/11/24 04:28:39;;;;;;;8.85;1.35;;;6.90;99.90;;;;;;5129005;28;20050;-58
2023/11/24 04:31:04;;;;;;;10.02;1.77;;;6.90;99.90;;;;;;5123487;28;20092;-56
2023/11/24 04:33:30;;;;;;;10.73;1.30;;;6.80;99.90;;;;;;5130922;28;20492;-56
2023/11/24 04:35:57;;;;;;;11.95;2.17;;;6.80;99.90;;;;;;5121620;28;20051;-55
2023/11/24 04:38:23;;;;;;;11.00;2.13;;;6.80;99.90;;;;;;5113635;28;20115;-54
2023/11/24 04:40:49;;;;;;;15.32;2.38;;;6.70;99.90;;;;;;5120723;28;20548;-57
2023/11/24 04:43:15;;;;;;;8.15;1.23;;;6.80;99.90;;;;;;5114109;28;20035;-57
2023/11/24 04:45:41;;;;;;;9.05;1.20;;;6.80;99.90;;;;;;5131634;27;20062;-55
2023/11/24 04:48:07;;;;;;;9.60;1.63;;;6.80;99.90;;;;;;5135691;27;20047;-54
2023/11/24 04:50:34;;;;;;;10.50;1.73;;;6.80;99.90;;;;;;5121097;27;20046;-58
2023/11/24 04:53:02;;;;;;;11.68;2.20;;;6.70;99.90;;;;;;5135884;27;20396;-55
2023/11/24 04:55:28;;;;;;;12.50;1.70;;;6.70;99.90;;;;;;5100795;28;20040;-55
2023/11/24 04:57:54;;;;;;;17.20;1.95;;;6.60;99.90;;;;;;5115692;28;20092;-56
2023/11/24 05:00:20;;;;;;;10.60;1.92;;;6.60;99.90;;;;;;5114657;28;20036;-55
2023/11/24 05:02:46;;;;;;;9.57;2.60;;;6.70;99.90;;;;;;5114946;28;20035;-56
2023/11/24 05:05:12;;;;;;;9.75;2.15;;;6.50;99.90;;;;;;5114740;28;20100;-55
2023/11/24 05:07:38;;;;;;;13.98;1.83;;;6.10;99.90;;;;;;5114840;28;20028;-52
2023/11/24 05:10:05;;;;;;;13.60;2.00;;;6.00;99.90;;;;;;5096728;28;20089;-54
2023/11/24 05:12:31;;;;;;;11.10;1.73;;;5.90;99.90;;;;;;5114642;28;20157;-55
2023/11/24 05:14:57;;;;;;;15.57;2.90;;;6.00;99.90;;;;;;5114691;28;20049;-57
2023/11/24 05:17:23;;;;;;;12.43;2.20;;;6.10;99.90;;;;;;5114597;28;20187;-56
2023/11/24 05:19:48;;;;;;;11.90;1.58;;;6.10;99.90;;;;;;5114654;28;20036;-56
2023/11/24 05:22:14;;;;;;;6.38;1.20;;;6.10;99.90;;;;;;5096497;28;20040;-55
2023/11/24 05:24:40;;;;;;;6.97;1.10;;;6.10;99.90;;;;;;5096230;28;20042;-55
2023/11/24 05:27:07;;;;;;;8.52;1.85;;;6.10;99.90;;;;;;5096216;28;20039;-56
2023/11/24 05:29:33;;;;;;;4.88;1.20;;;6.10;99.90;;;;;;5114304;28;20039;-54
2023/11/24 05:31:59;;;;;;;9.38;1.20;;;6.20;99.90;;;;;;5114403;28;20054;-56
2023/11/24 05:34:25;;;;;;;12.02;1.70;;;6.40;99.90;;;;;;5114437;28;20201;-54
2023/11/24 05:36:52;;;;;;;9.88;1.70;;;6.60;99.90;;;;;;5114559;28;20071;-56
2023/11/24 05:39:18;;;;;;;10.75;2.10;;;6.50;99.90;;;;;;5096082;28;20122;-56
2023/11/24 05:41:46;;;;;;;14.30;2.38;;;6.40;99.90;;;;;;5096105;28;20092;-56
2023/11/24 05:44:12;;;;;;;11.70;1.73;;;6.40;99.90;;;;;;5091235;28;20047;-54
2023/11/24 05:46:38;;;;;;;17.50;3.20;;;6.40;99.90;;;;;;5114189;28;20035;-57
2023/11/24 05:49:05;;;;;;;21.50;3.08;;;6.30;99.90;;;;;;5096134;28;20075;-55
2023/11/24 05:51:32;;;;;;;13.23;1.92;;;6.30;99.90;;;;;;5114224;28;20484;-56
2023/11/24 05:53:59;;;;;;;7.88;1.27;;;6.40;99.90;;;;;;5109637;28;20043;-56
2023/11/24 05:56:25;;;;;;;6.85;1.00;;;6.30;99.90;;;;;;5111626;28;20047;-54
2023/11/24 05:58:53;;;;;;;11.27;1.25;;;6.30;99.90;;;;;;5113637;28;20096;-56
2023/11/24 06:01:22;;;;;;;6.03;1.38;;;6.20;99.90;;;;;;5114045;28;20054;-56
2023/11/24 06:03:48;;;;;;;6.38;1.35;;;6.20;99.90;;;;;;5105365;28;20078;-55
2023/11/24 06:06:13;;;;;;;8.13;1.30;;;6.20;99.90;;;;;;5113880;28;20071;-55
2023/11/24 06:08:39;;;;;;;8.93;2.45;;;6.10;99.90;;;;;;5113938;28;20522;-53
2023/11/24 06:11:05;;;;;;;14.77;1.95;;;6.00;99.90;;;;;;5113546;28;20489;-55
2023/11/24 06:13:32;;;;;;;8.07;1.52;;;6.00;99.90;;;;;;5113387;28;20047;-56
2023/11/24 06:15:58;;;;;;;12.30;1.80;;;6.00;99.90;;;;;;5113639;28;20046;-56
2023/11/24 06:18:25;;;;;;;16.02;1.90;;;5.90;99.90;;;;;;5095465;28;20043;-56
2023/11/24 06:20:52;;;;;;;11.45;2.55;;;5.90;99.90;;;;;;5113494;28;20487;-57
2023/11/24 06:23:18;;;;;;;11.95;1.50;;;5.90;99.90;;;;;;5113510;28;20389;-54
2023/11/24 06:25:43;;;;;;;9.43;2.03;;;5.90;99.90;;;;;;5095315;28;20039;-54
2023/11/24 06:28:09;;;;;;;15.93;2.28;;;5.90;99.90;;;;;;5113182;28;20427;-57
2023/11/24 06:30:35;;;;;;;16.60;2.75;;;5.90;99.90;;;;;;5113298;28;20059;-56
2023/11/24 06:33:01;;;;;;;13.32;2.83;;;5.90;99.90;;;;;;5094783;28;20047;-58
2023/11/24 06:35:26;;;;;;;16.48;2.90;;;6.00;99.90;;;;;;5113154;28;20040;-55
2023/11/24 06:37:52;;;;;;;15.75;2.63;;;6.00;99.90;;;;;;5113097;28;20039;-56
2023/11/24 06:40:19;;;;;;;14.13;2.50;;;6.00;99.90;;;;;;5095055;28;20031;-56
2023/11/24 06:42:45;;;;;;;17.85;3.38;;;6.00;99.90;;;;;;5113357;28;20054;-55
2023/11/24 06:45:14;;;;;;;14.40;3.20;;;6.00;99.90;;;;;;5113096;28;20402;-54
2023/11/24 06:47:41;;;;;;;14.18;2.58;;;6.00;99.90;;;;;;5112833;28;20044;-54
2023/11/24 06:50:13;;;;;;;14.07;2.72;;;6.10;99.90;;;;;;5112688;28;20040;-57
2023/11/24 06:52:40;;;;;;;8.25;1.50;;;6.20;99.90;;;;;;5112847;28;20035;-55
2023/11/24 06:55:06;;;;;;;11.25;1.73;;;6.20;99.90;;;;;;5098964;28;20043;-58
2023/11/24 06:57:32;;;;;;;12.98;2.10;;;6.30;99.90;;;;;;5089998;28;20039;-55
2023/11/24 06:59:58;;;;;;;13.25;1.90;;;6.30;99.90;;;;;;5104309;28;20081;-57
2023/11/24 07:02:24;;;;;;;12.82;2.38;;;6.40;99.90;;;;;;5112277;28;20035;-58
2023/11/24 07:04:50;;;;;;;15.20;2.88;;;6.40;99.90;;;;;;5115170;27;20115;-54
2023/11/24 07:07:16;;;;;;;14.10;2.88;;;6.40;99.90;;;;;;5131652;27;20039;-56
2023/11/24 07:09:43;;;;;;;12.45;3.17;;;6.40;99.90;;;;;;5118762;27;20039;-55
2023/11/24 07:12:12;;;;;;;15.63;3.40;;;6.50;99.90;;;;;;5133088;27;20104;-56
2023/11/24 07:14:38;;;;;;;;;;;6.40;99.90;;;;;;5133394;27;20431;-56
2023/11/24 07:17:06;;;;;;;18.48;2.80;;;6.50;99.90;;;;;;5133076;27;19919;-55
2023/11/24 07:19:31;;;;;;;16.33;2.47;;;6.60;99.90;;;;;;5114835;27;20074;-56
2023/11/24 07:21:57;;;;;;;15.07;2.30;;;6.60;99.90;;;;;;5132956;27;20107;-56
2023/11/24 07:24:23;;;;;;;20.17;3.80;;;6.60;99.90;;;;;;5132914;27;20039;-56
2023/11/24 07:26:49;;;;;;;10.73;2.47;;;6.70;99.90;;;;;;5133049;27;20063;-55
2023/11/24 07:29:15;;;;;;;12.98;2.50;;;6.70;99.90;;;;;;5114350;27;20500;-54
2023/11/24 07:31:41;;;;;;;17.15;2.33;;;6.70;99.90;;;;;;5112896;27;20035;-55
2023/11/24 07:34:07;;;;;;;19.88;3.17;;;6.60;99.90;;;;;;5114337;27;20408;-60
2023/11/24 07:36:33;;;;;;;17.58;3.08;;;6.70;99.90;;;;;;5123608;27;20088;-59
2023/11/24 07:38:58;;;;;;;22.77;4.63;;;6.70;99.90;;;;;;5133221;27;20035;-56
2023/11/24 07:41:25;;;;;;;19.00;3.80;;;6.70;99.90;;;;;;5114652;27;20138;-56
2023/11/24 07:43:50;;;;;;;11.95;3.13;;;6.80;99.90;;;;;;5132740;27;20081;-61
2023/11/24 07:46:17;;;;;;;17.92;3.20;;;6.90;99.90;;;;;;5111689;28;20071;-56
2023/11/24 07:48:43;;;;;;;17.13;3.42;;;6.90;99.90;;;;;;5117552;27;20054;-54
2023/11/24 07:51:10;;;;;;;13.07;3.75;;;7.00;99.90;;;;;;5132753;27;20138;-55
2023/11/24 07:53:36;;;;;;;16.17;3.30;;;7.00;99.90;;;;;;5130327;27;20043;-52
2023/11/24 07:56:04;;;;;;;23.67;5.30;;;6.90;99.90;;;;;;5099080;28;20039;-53
2023/11/24 07:58:29;;;;;;;16.90;3.72;;;7.00;99.90;;;;;;5112255;28;20385;-55
2023/11/24 08:00:55;;;;;;;13.85;3.05;;;7.00;99.90;;;;;;5111918;28;20038;-52
2023/11/24 08:03:22;;;;;;;17.48;3.47;;;7.00;99.90;;;;;;5112041;28;20489;-56
2023/11/24 08:05:50;;;;;;;16.73;3.20;;;7.10;99.90;;;;;;5111828;28;20044;-54
2023/11/24 08:08:17;;;;;;;13.80;3.28;;;7.10;99.90;;;;;;5112302;28;20342;-54
2023/11/24 08:10:43;;;;;;;13.40;4.00;;;7.10;99.90;;;;;;5111793;28;20067;-56
2023/11/24 08:13:10;;;;;;;13.00;2.58;;;7.10;99.90;;;;;;5112089;28;20044;-51
2023/11/24 08:15:35;;;;;;;17.20;3.08;;;7.10;99.90;;;;;;5093815;28;20065;-60
2023/11/24 08:18:01;;;;;;;18.88;3.42;;;7.30;99.90;;;;;;5113108;28;20477;-57
2023/11/24 08:20:28;;;;;;;19.20;3.20;;;7.30;99.90;;;;;;5098074;28;20133;-55
2023/11/24 08:22:54;;;;;;;14.88;2.75;;;7.30;99.90;;;;;;5116173;28;20074;-56
2023/11/24 08:25:19;;;;;;;20.83;3.20;;;7.10;99.90;;;;;;5116192;28;20067;-56
2023/11/24 08:27:46;;;;;;;11.95;2.42;;;7.00;99.90;;;;;;5115701;28;20039;-54
2023/11/24 08:30:13;;;;;;;15.60;2.38;;;6.90;99.90;;;;;;5097494;28;20071;-55
2023/11/24 08:32:40;;;;;;;13.73;2.53;;;6.70;99.90;;;;;;5080514;28;20036;-58
2023/11/24 08:35:06;;;;;;;13.73;1.77;;;6.60;99.90;;;;;;5115541;28;20042;-55
2023/11/24 08:37:34;;;;;;;11.25;2.22;;;6.60;99.90;;;;;;5115850;28;20093;-56
2023/11/24 08:40:02;;;;;;;10.57;1.90;;;6.50;99.90;;;;;;5115761;28;20031;-57
2023/11/24 08:42:31;;;;;;;8.40;2.00;;;6.40;99.90;;;;;;5115704;28;20135;-56
2023/11/24 08:44:57;;;;;;;7.38;1.33;;;6.40;99.90;;;;;;5115407;28;20036;-56
2023/11/24 08:47:25;;;;;;;11.82;2.35;;;6.50;99.90;;;;;;5115521;28;20051;-54
2023/11/24 08:49:51;;;;;;;13.07;2.00;;;6.60;99.90;;;;;;5103639;28;20059;-59
2023/11/24 08:52:17;;;;;;;14.32;3.45;;;6.70;99.90;;;;;;5115344;28;20039;-54
2023/11/24 08:54:42;;;;;;;10.60;2.85;;;6.70;99.90;;;;;;5104973;28;20055;-54
2023/11/24 08:57:08;;;;;;;11.30;2.72;;;6.80;99.90;;;;;;5079690;28;20165;-56
2023/11/24 08:59:36;;;;;;;22.48;2.88;;;6.80;99.90;;;;;;5115319;28;20111;-56
2023/11/24 09:02:04;;;;;;;16.02;2.58;;;7.00;99.90;;;;;;5117339;27;20032;-59
2023/11/24 09:04:32;;;;;;;11.85;2.60;;;7.10;99.90;;;;;;5090115;27;20050;-44
2023/11/24 09:06:58;;;;;;;12.07;2.58;;;7.20;99.90;;;;;;5132965;27;20035;-45
2023/11/24 09:09:24;;;;;;;16.85;2.83;;;7.30;99.90;;;;;;5117195;27;20557;-48
2023/11/24 09:11:50;;;;;;;13.95;2.28;;;7.40;99.90;;;;;;5135982;27;20074;-44
2023/11/24 09:14:16;;;;;;;10.57;2.08;;;7.40;99.90;;;;;;5100024;27;20046;-48
2023/11/24 09:16:42;;;;;;;11.30;2.28;;;7.40;99.90;;;;;;5135457;27;20455;-46
2023/11/24 09:19:08;;;;;;;14.85;2.15;;;7.50;99.90;;;;;;5115291;27;20100;-56
2023/11/24 09:21:34;;;;;;;11.80;2.25;;;7.60;99.90;;;;;;5125069;27;20104;-44
2023/11/24 09:24:01;;;;;;;17.45;3.17;;;7.60;99.90;;;;;;5117021;27;20051;-47
2023/11/24 09:26:28;;;;;;;17.75;3.47;;;7.70;99.90;;;;;;5117104;27;20031;-46
2023/11/24 09:28:54;;;;;;;18.80;3.28;;;7.80;99.90;;;;;;5135054;27;20389;-46
2023/11/24 09:31:20;;;;;;;14.70;2.88;;;7.90;99.90;;;;;;5125790;27;20524;-48
2023/11/24 09:33:45;;;;;;;17.95;3.25;;;8.10;99.90;;;;;;5127563;27;20467;-46
2023/11/24 09:36:14;;;;;;;8.77;2.15;;;8.20;99.90;;;;;;5135268;27;20542;-43
2023/11/24 09:38:40;;;;;;;17.48;3.10;;;8.10;99.90;;;;;;5135571;27;20146;-43
2023/11/24 09:41:08;;;;;;;20.75;3.10;;;7.80;99.90;;;;;;5135274;27;20110;-43
2023/11/24 09:43:38;;;;;;;16.70;2.38;;;7.60;99.90;;;;;;5116979;27;20096;-45
2023/11/24 09:46:08;;;;;;;15.32;2.63;;;7.60;99.90;;;;;;5135030;27;20042;-43
2023/11/24 09:48:35;;;;;;;15.20;2.90;;;7.50;99.90;;;;;;5134540;27;20549;-43
2023/11/24 09:51:11;;;;;;;18.35;3.40;;;7.40;99.90;;;;;;5134756;27;20039;-45
2023/11/24 09:53:40;;;;;;;17.23;3.03;;;7.40;99.90;;;;;;5132261;27;20035;-44
2023/11/24 09:56:07;;;;;;;16.02;2.53;;;7.60;99.90;;;;;;5083411;28;20043;-46
2023/11/24 09:58:34;;;;;;;17.30;4.03;;;7.70;99.90;;;;;;5095811;28;20122;-43
2023/11/24 10:01:16;;;;;;;17.63;3.17;;;7.80;99.90;;;;;;5114123;28;20068;-46
2023/11/24 10:03:46;;;;;;;12.88;3.15;;;7.80;99.90;;;;;;5095489;28;20040;-45
2023/11/24 10:06:13;;;;;;;18.77;3.13;;;7.90;99.90;;;;;;5082456;28;20543;-47
2023/11/24 10:08:40;;;;;;;17.77;3.47;;;8.10;99.90;;;;;;5113797;28;20489;-46
2023/11/24 10:11:12;;;;;;;13.38;3.35;;;8.10;99.90;;;;;;5095703;28;20031;-49
2023/11/24 10:13:41;;;;;;;17.60;3.72;;;7.90;99.90;;;;;;5113823;28;20039;-43
2023/11/24 10:16:08;;;;;;;18.90;3.42;;;7.90;99.90;;;;;;5114184;28;20051;-42
2023/11/24 10:18:34;;;;;;;15.05;3.17;;;8.00;99.90;;;;;;5113900;28;20380;-46
2023/11/24 10:21:03;;;;;;;15.70;2.67;;;7.40;99.90;;;;;;5113709;28;20039;-45
2023/11/24 10:23:31;;;;;;;;;;;7.20;99.90;;;;;;5114482;28;20058;-45
2023/11/24 10:25:57;;;;;;;15.88;2.58;;;7.20;99.90;;;;;;5113733;28;19915;-46
2023/11/24 10:28:25;;;;;;;18.83;2.50;;;7.10;99.90;;;;;;5113775;28;20047;-43
2023/11/24 10:30:52;;;;;;;18.08;3.15;;;7.20;99.90;;;;;;5113422;28;20493;-43
2023/11/24 10:33:20;;;;;;;17.95;2.78;;;7.20;99.90;;;;;;5113259;28;20595;-45
2023/11/24 10:35:47;;;;;;;16.58;2.40;;;7.20;99.90;;;;;;5113371;28;20039;-48
2023/11/24 10:38:21;;;;;;;13.77;2.20;;;7.40;99.90;;;;;;5113514;28;20070;-44
2023/11/24 10:40:50;;;;;;;9.93;1.50;;;7.30;99.90;;;;;;5111523;28;20040;-42
2023/11/24 10:43:19;;;;;;;5.53;1.20;;;7.20;99.90;;;;;;5105908;28;20040;-43
2023/11/24 10:45:51;;;;;;;8.80;1.15;;;7.20;99.90;;;;;;5095142;28;20111;-44
2023/11/24 10:48:40;;;;;;;7.32;1.63;;;7.00;99.90;;;;;;5111816;28;20405;-43
2023/11/24 10:51:36;;;;;;;10.88;1.90;;;7.00;99.90;;;;;;5109868;28;20422;-45
2023/11/24 10:54:07;;;;;;;15.07;2.40;;;7.10;99.90;;;;;;5081145;28;20468;-42
2023/11/24 10:56:36;;;;;;;11.43;2.53;;;7.30;99.90;;;;;;5085121;28;20034;-45
2023/11/24 10:59:05;;;;;;;4.05;1.17;;;7.00;99.90;;;;;;5112421;28;20038;-43
2023/11/24 11:01:31;;;;;;;12.38;1.85;;;6.70;99.90;;;;;;5104842;28;20417;-45
2023/11/24 11:04:00;;;;;;;17.13;2.40;;;6.50;99.90;;;;;;5093421;28;20044;-44
2023/11/24 11:06:49;;;;;;;10.32;2.17;;;6.40;99.90;;;;;;5094789;28;20031;-45
2023/11/24 11:09:29;;;;;;;10.48;2.92;;;6.30;99.90;;;;;;5112619;28;20497;-43
2023/11/24 11:12:02;;;;;;;10.93;2.58;;;6.50;99.90;;;;;;5113094;28;20035;-44
2023/11/24 11:14:28;;;;;;;10.65;2.65;;;6.40;99.90;;;;;;5094318;28;20097;-47
2023/11/24 11:16:54;;;;;;;12.00;2.72;;;6.30;99.90;;;;;;5112789;28;20064;-43
2023/11/24 11:19:33;;;;;;;11.95;3.25;;;6.40;99.90;;;;;;5093764;28;20154;-43
2023/11/24 11:22:06;;;;;;;21.05;4.38;;;6.30;99.90;;;;;;5112731;28;20042;-42
2023/11/24 11:24:34;;;;;;;12.23;3.38;;;6.50;99.90;;;;;;5112515;28;20043;-44
2023/11/24 11:27:00;;;;;;;15.73;3.33;;;6.60;99.90;;;;;;5077476;28;20043;-44
2023/11/24 11:29:28;;;;;;;12.30;2.40;;;6.70;99.90;;;;;;5126672;27;20041;-49
2023/11/24 11:31:55;;;;;;;9.90;1.60;;;6.80;99.90;;;;;;5125906;27;20047;-43
2023/11/24 11:34:31;;;;;;;8.57;2.38;;;7.00;99.90;;;;;;5120546;27;20386;-46
2023/11/24 11:37:11;;;;;;;15.02;3.08;;;7.10;99.90;;;;;;5125998;27;20044;-44
2023/11/24 11:39:38;;;;;;;14.80;2.78;;;7.20;99.90;;;;;;5117810;27;20032;-45
2023/11/24 11:42:05;;;;;;;12.20;2.20;;;7.40;99.90;;;;;;5128277;27;20035;-44
2023/11/24 11:44:33;;;;;;;17.10;3.17;;;7.40;99.90;;;;;;5123645;27;20130;-45
2023/11/24 11:47:12;;;;;;;16.02;2.13;;;7.60;99.90;;;;;;5132265;27;20114;-45
2023/11/24 11:49:42;;;;;;;9.30;2.00;;;7.70;99.90;;;;;;5132504;27;20374;-48
2023/11/24 11:52:11;;;;;;;13.68;2.80;;;7.90;99.90;;;;;;5132213;27;20086;-44
2023/11/24 11:54:38;;;;;;;13.98;2.25;;;8.00;99.90;;;;;;5095099;28;20048;-45
2023/11/24 11:57:04;;;;;;;14.27;2.63;;;8.20;99.90;;;;;;5089267;28;20118;-44
2023/11/24 11:59:30;;;;;;;11.82;2.08;;;8.20;99.90;;;;;;5112271;28;20032;-45
2023/11/24 12:01:57;;;;;;;6.70;1.27;;;7.50;99.90;;;;;;5112136;28;20035;-43
2023/11/24 12:04:28;;;;;;;9.77;2.33;;;7.20;99.90;;;;;;5094047;28;20048;-45
2023/11/24 12:06:54;;;;;;;6.18;2.10;;;6.90;99.90;;;;;;5111654;28;20035;-45
2023/11/24 12:09:21;;;;;;;10.98;2.17;;;6.80;99.90;;;;;;5111739;28;20474;-45
2023/11/24 12:11:46;;;;;;;15.65;2.50;;;6.70;99.90;;;;;;5111563;28;20040;-45
2023/11/24 12:14:15;;;;;;;15.77;2.55;;;6.70;99.90;;;;;;5111821;28;20504;-43
2023/11/24 12:16:41;;;;;;;17.35;3.00;;;6.70;99.90;;;;;;5111960;28;20051;-45
2023/11/24 12:19:08;;;;;;;16.33;3.25;;;6.80;99.90;;;;;;5122604;28;20058;-45
2023/11/24 12:21:42;;;;;;;14.13;3.30;;;6.90;99.90;;;;;;5132177;28;20514;-44
2023/11/24 12:24:09;;;;;;;13.52;2.70;;;6.90;99.90;;;;;;5131924;28;20045;-45
2023/11/24 12:26:38;;;;;;;17.63;3.60;;;6.90;99.90;;;;;;5113769;28;20358;-45
2023/11/24 12:29:09;;;;;;;;;;;6.80;99.90;;;;;;5119657;28;20043;-45
2023/11/24 12:31:38;;;;;;;12.25;2.95;;;6.90;99.90;;;;;;5131323;28;19915;-44
2023/11/24 12:34:15;;;;;;;;;;;7.00;99.90;;;;;;5109528;28;20588;-43
2023/11/24 12:36:41;;;;;;;16.55;3.15;;;7.10;99.90;;;;;;5132174;28;20002;-46
2023/11/24 12:39:13;;;;;;;13.68;2.58;;;7.20;99.90;;;;;;5118068;28;20517;-44
2023/11/24 12:41:43;;;;;;;13.93;2.17;;;7.20;99.90;;;;;;5113880;28;20106;-44
2023/11/24 12:44:10;;;;;;;11.13;2.65;;;7.30;99.90;;;;;;5097928;28;20044;-42
2023/11/24 12:46:37;;;;;;;13.02;1.88;;;7.20;99.90;;;;;;5103905;28;20118;-44
2023/11/24 12:49:04;;;;;;;9.27;1.73;;;7.20;99.90;;;;;;5132010;28;20059;-46
2023/11/24 12:51:33;;;;;;;19.85;2.25;;;7.20;99.90;;;;;;5131999;28;20107;-45